Time;durP1;ratioP1;P1;durP2;ratioP2;P2;SDS_P1;SDS_P2;PMS_P1;PMS_P2;Temp;Humidity;BMP_temperature;BMP_pressure;BME280_temperature;BME280_humidity;BME280_pressure;Samples;Min_cycle;Max_cycle;Signal;HPM_P1;HPM_P2
2021/06/26 00:02:00;;;;;;;10.88;8.30;;;17.40;99.90;;;;;;5082865;28;20029;-76
2021/06/26 00:04:26;;;;;;;12.10;10.40;;;17.30;99.90;;;;;;5080494;28;20032;-75
2021/06/26 00:06:52;;;;;;;9.73;8.82;;;17.30;99.90;;;;;;5070353;28;20047;-75
2021/06/26 00:09:17;;;;;;;11.23;10.10;;;17.30;99.90;;;;;;5070609;28;20489;-77
2021/06/26 00:11:43;;;;;;;12.45;10.27;;;17.30;99.90;;;;;;5081509;28;20111;-75
2021/06/26 00:14:09;;;;;;;11.93;9.88;;;17.40;99.90;;;;;;5069779;28;20028;-75
2021/06/26 00:16:35;;;;;;;16.85;10.68;;;17.40;99.90;;;;;;5062171;28;20021;-76
2021/06/26 00:19:01;;;;;;;11.00;9.90;;;17.40;99.90;;;;;;5068691;28;20108;-78
2021/06/26 00:21:26;;;;;;;12.27;10.55;;;17.50;99.90;;;;;;5070032;28;20445;-78
2021/06/26 00:23:52;;;;;;;11.48;10.38;;;17.40;99.90;;;;;;5061361;28;20036;-75
2021/06/26 00:26:18;;;;;;;13.25;9.93;;;17.40;99.90;;;;;;5065052;28;20028;-75
2021/06/26 00:28:45;;;;;;;9.48;8.63;;;17.40;99.90;;;;;;5062441;28;20056;-76
2021/06/26 00:31:11;;;;;;;10.77;9.77;;;17.40;99.90;;;;;;5064555;28;20024;-76
2021/06/26 00:33:37;;;;;;;10.05;9.02;;;17.30;99.90;;;;;;5068844;28;20095;-76
2021/06/26 00:36:03;;;;;;;10.32;9.32;;;17.40;99.90;;;;;;5060281;28;20428;-75
2021/06/26 00:38:29;;;;;;;11.00;9.73;;;17.40;99.90;;;;;;5063625;28;20033;-78
2021/06/26 00:40:54;;;;;;;11.23;10.13;;;17.40;99.90;;;;;;5071054;28;20031;-77
2021/06/26 00:43:20;;;;;;;10.75;9.73;;;17.40;99.90;;;;;;5070714;28;20024;-76
2021/06/26 00:45:46;;;;;;;13.20;9.90;;;17.30;99.90;;;;;;5070652;28;20020;-78
2021/06/26 00:48:11;;;;;;;10.82;9.75;;;17.50;99.90;;;;;;5068391;28;20021;-77
2021/06/26 00:50:37;;;;;;;10.52;9.43;;;17.60;99.90;;;;;;5064320;28;20035;-77
2021/06/26 00:53:03;;;;;;;11.00;9.82;;;17.60;99.90;;;;;;5072348;28;20035;-80
2021/06/26 00:55:29;;;;;;;10.80;9.70;;;17.60;99.90;;;;;;5059808;28;20482;-80
2021/06/26 00:57:57;;;;;;;13.40;10.60;;;17.60;99.90;;;;;;5071545;28;20389;-79
2021/06/26 01:00:27;;;;;;;12.00;10.75;;;17.50;99.90;;;;;;5069119;28;20020;-79
2021/06/26 01:02:53;;;;;;;15.13;11.02;;;17.30;99.90;;;;;;5088866;28;20043;-79
2021/06/26 01:05:19;;;;;;;17.23;12.20;;;17.30;99.90;;;;;;5084969;28;20146;-79
2021/06/26 01:07:46;;;;;;;14.25;12.70;;;17.30;99.90;;;;;;5087734;28;20058;-78
2021/06/26 01:10:12;;;;;;;16.65;12.38;;;17.30;99.90;;;;;;5060013;28;20028;-79
2021/06/26 01:12:38;;;;;;;15.02;13.23;;;17.50;99.90;;;;;;5059894;28;20113;-79
2021/06/26 01:15:09;;;;;;;13.40;12.18;;;17.60;99.90;;;;;;5065194;28;20032;-80
2021/06/26 01:17:34;;;;;;;15.07;13.60;;;17.70;99.90;;;;;;5091410;28;20041;-80
2021/06/26 01:20:02;;;;;;;13.32;12.13;;;17.60;99.90;;;;;;5088515;28;20033;-81
2021/06/26 01:22:29;;;;;;;15.27;12.32;;;17.40;99.90;;;;;;5095808;28;20027;-77
2021/06/26 01:24:55;;;;;;;14.88;13.15;;;17.30;99.90;;;;;;5063629;28;20500;-79
2021/06/26 01:27:21;;;;;;;14.93;12.90;;;17.30;99.90;;;;;;5073187;28;20029;-78
2021/06/26 01:29:52;;;;;;;12.25;11.20;;;17.20;99.90;;;;;;5082249;28;20033;-80
2021/06/26 01:32:19;;;;;;;12.63;11.43;;;17.20;99.90;;;;;;5072785;28;20043;-78
2021/06/26 01:34:46;;;;;;;12.90;11.60;;;17.20;99.90;;;;;;5063863;28;20478;-81
2021/06/26 01:37:13;;;;;;;13.63;12.38;;;17.20;99.90;;;;;;5084861;28;20021;-81
2021/06/26 01:39:39;;;;;;;12.88;11.57;;;17.20;99.90;;;;;;5069695;28;20398;-81
2021/06/26 01:42:05;;;;;;;15.32;12.13;;;17.20;99.90;;;;;;5077439;28;20028;-80
2021/06/26 01:44:31;;;;;;;12.68;11.32;;;17.20;99.90;;;;;;5065826;28;20035;-80
2021/06/26 01:46:57;;;;;;;12.48;11.23;;;17.30;99.90;;;;;;5081045;28;20363;-82
2021/06/26 01:49:23;;;;;;;14.23;12.82;;;17.30;99.90;;;;;;5087938;28;20035;-79
2021/06/26 01:51:48;;;;;;;12.52;11.23;;;17.40;99.90;;;;;;5065740;28;20287;-79
2021/06/26 01:54:14;;;;;;;12.95;11.85;;;17.40;99.90;;;;;;5065002;28;20032;-78
2021/06/26 01:56:40;;;;;;;14.55;13.20;;;17.40;99.90;;;;;;5063189;28;20020;-78
2021/06/26 01:59:06;;;;;;;16.13;13.45;;;17.30;1.00;;;;;;5074764;28;20393;-79
2021/06/26 02:01:35;;;;;;;13.82;12.45;;;17.20;1.00;;;;;;5073988;28;20036;-78
2021/06/26 02:04:01;;;;;;;13.82;11.43;;;17.10;1.00;;;;;;5072539;28;20047;-78
2021/06/26 02:06:27;;;;;;;17.00;12.18;;;17.10;1.00;;;;;;5070968;28;20028;-78
2021/06/26 02:08:53;;;;;;;14.68;13.07;;;17.00;1.00;;;;;;5067861;28;20028;-79
2021/06/26 02:11:18;;;;;;;13.82;12.43;;;17.00;1.00;;;;;;5091742;28;20056;-78
2021/06/26 02:13:44;;;;;;;14.02;12.73;;;17.00;1.00;;;;;;5075634;28;20078;-77
2021/06/26 02:16:10;;;;;;;14.18;12.65;;;17.00;1.00;;;;;;5088776;28;20517;-78
2021/06/26 02:18:35;;;;;;;13.68;12.27;;;17.10;1.00;;;;;;5072376;28;20477;-77
2021/06/26 02:21:01;;;;;;;15.38;13.77;;;17.20;1.00;;;;;;5074741;28;20059;-78
2021/06/26 02:23:27;;;;;;;15.07;13.18;;;17.20;1.00;;;;;;5090398;28;20128;-78
2021/06/26 02:25:53;;;;;;;14.43;12.90;;;17.30;1.00;;;;;;5071768;28;20032;-78
2021/06/26 02:28:19;;;;;;;13.60;12.30;;;17.50;1.00;;;;;;5077001;28;20041;-74
2021/06/26 02:30:45;;;;;;;14.23;12.82;;;17.50;1.00;;;;;;5064551;28;20032;-75
2021/06/26 02:33:10;;;;;;;18.02;12.30;;;17.40;1.00;;;;;;5070650;28;20060;-77
2021/06/26 02:35:36;;;;;;;14.73;12.48;;;17.40;1.00;;;;;;5069820;28;20028;-74
2021/06/26 02:38:02;;;;;;;13.68;12.32;;;17.40;1.00;;;;;;5071614;28;20029;-76
2021/06/26 02:40:28;;;;;;;13.13;11.85;;;17.40;1.00;;;;;;5088090;28;20028;-76
2021/06/26 02:42:53;;;;;;;17.05;12.25;;;17.40;1.00;;;;;;5066093;28;20059;-75
2021/06/26 02:45:19;;;;;;;17.23;12.63;;;17.40;1.00;;;;;;5069069;28;20044;-75
2021/06/26 02:47:45;;;;;;;16.83;13.23;;;17.40;1.00;;;;;;5070464;28;20034;-76
2021/06/26 02:50:11;;;;;;;14.43;12.98;;;17.40;1.00;;;;;;5065474;28;20024;-75
2021/06/26 02:52:37;;;;;;;15.88;14.23;;;17.40;1.00;;;;;;5070437;28;20028;-75
2021/06/26 02:55:04;;;;;;;14.48;13.07;;;17.30;1.00;;;;;;5080920;28;20023;-74
2021/06/26 02:57:30;;;;;;;14.05;12.68;;;17.40;1.00;;;;;;5069421;28;20039;-75
2021/06/26 02:59:56;;;;;;;14.57;13.05;;;17.50;1.00;;;;;;5073791;28;20029;-76
2021/06/26 03:02:22;;;;;;;14.40;13.00;;;17.40;1.00;;;;;;5065508;28;20032;-75
2021/06/26 03:04:47;;;;;;;15.70;14.07;;;17.30;1.00;;;;;;5065999;28;20478;-75
2021/06/26 03:07:13;;;;;;;15.05;13.18;;;17.20;1.00;;;;;;5073435;28;20413;-75
2021/06/26 03:09:38;;;;;;;15.35;13.80;;;17.10;1.00;;;;;;5065583;28;20025;-74
2021/06/26 03:12:05;;;;;;;14.90;13.15;;;17.10;1.00;;;;;;5087624;28;20017;-75
2021/06/26 03:14:30;;;;;;;14.38;12.85;;;17.10;1.00;;;;;;5071254;28;20461;-74
2021/06/26 03:16:56;;;;;;;13.57;12.18;;;17.20;1.00;;;;;;5073325;28;20077;-75
2021/06/26 03:19:21;;;;;;;14.20;12.75;;;17.30;1.00;;;;;;5073883;28;20059;-74
2021/06/26 03:21:47;;;;;;;17.00;13.43;;;17.20;1.00;;;;;;5071747;28;20482;-74
2021/06/26 03:24:13;;;;;;;17.73;13.43;;;17.10;1.00;;;;;;5072973;28;20028;-75
2021/06/26 03:26:38;;;;;;;13.73;12.27;;;17.00;1.00;;;;;;5057487;28;20432;-75
2021/06/26 03:29:05;;;;;;;16.10;14.27;;;17.00;1.00;;;;;;5061283;28;20016;-75
2021/06/26 03:31:31;;;;;;;14.73;13.13;;;17.00;1.00;;;;;;5073631;28;20032;-75
2021/06/26 03:33:56;;;;;;;18.73;13.15;;;17.20;1.00;;;;;;5070839;28;20401;-75
2021/06/26 03:36:24;;;;;;;15.05;13.50;;;17.20;1.00;;;;;;5083427;28;20073;-74
2021/06/26 03:38:50;;;;;;;17.10;12.98;;;17.20;1.00;;;;;;5088818;28;20032;-74
2021/06/26 03:41:15;;;;;;;15.98;13.40;;;17.30;1.00;;;;;;5067647;28;20037;-75
2021/06/26 03:43:41;;;;;;;15.18;13.68;;;17.30;1.00;;;;;;5064980;28;20025;-74
2021/06/26 03:46:06;;;;;;;15.93;14.23;;;17.20;1.00;;;;;;5088457;28;20028;-73
2021/06/26 03:48:32;;;;;;;16.17;14.57;;;17.10;1.00;;;;;;5071811;28;20078;-74
2021/06/26 03:50:59;;;;;;;15.82;13.57;;;16.90;1.00;;;;;;5064922;28;20031;-74
2021/06/26 03:53:28;;;;;;;14.27;12.77;;;16.90;1.00;;;;;;5080764;28;20027;-74
2021/06/26 03:55:54;;;;;;;15.80;14.20;;;16.80;1.00;;;;;;5073168;28;20028;-75
2021/06/26 03:58:25;;;;;;;15.32;13.77;;;17.00;1.00;;;;;;5073289;28;20057;-74
2021/06/26 04:00:51;;;;;;;14.65;13.02;;;17.00;1.00;;;;;;5088701;28;20454;-75
2021/06/26 04:03:17;;;;;;;16.67;13.85;;;17.00;1.00;;;;;;5066530;28;20067;-75
2021/06/26 04:05:44;;;;;;;15.82;14.20;;;16.90;1.00;;;;;;5064312;28;20213;-74
2021/06/26 04:08:10;;;;;;;18.90;13.93;;;16.90;1.00;;;;;;5088502;28;20021;-75
2021/06/26 04:10:36;;;;;;;17.25;13.55;;;17.00;1.00;;;;;;5060879;28;20032;-75
2021/06/26 04:13:02;;;;;;;16.15;14.18;;;17.00;1.00;;;;;;5068688;28;20102;-75
2021/06/26 04:15:27;;;;;;;16.08;14.38;;;17.00;1.00;;;;;;5070930;28;20060;-74
2021/06/26 04:17:53;;;;;;;14.88;13.38;;;17.10;1.00;;;;;;5064114;28;20397;-74
2021/06/26 04:20:18;;;;;;;17.40;13.40;;;17.30;1.00;;;;;;5082216;28;20024;-74
2021/06/26 04:22:45;;;;;;;14.88;12.77;;;17.50;1.00;;;;;;5079953;28;20055;-74
2021/06/26 04:25:13;;;;;;;14.85;12.73;;;17.60;1.00;;;;;;5064467;28;20108;-72
2021/06/26 04:27:39;;;;;;;19.10;13.40;;;17.80;1.00;;;;;;5068878;28;20105;-74
2021/06/26 04:30:05;;;;;;;13.18;11.85;;;18.00;1.00;;;;;;5082076;28;20263;-74
2021/06/26 04:32:31;;;;;;;13.40;12.07;;;18.20;1.00;;;;;;5071995;28;20493;-76
2021/06/26 04:34:56;;;;;;;17.17;12.48;;;18.10;1.00;;;;;;5068055;28;20031;-75
2021/06/26 04:37:22;;;;;;;18.92;12.27;;;18.00;1.00;;;;;;5066929;28;20023;-75
2021/06/26 04:39:48;;;;;;;14.15;12.13;;;18.20;1.00;;;;;;5086866;28;20047;-74
2021/06/26 04:42:13;;;;;;;14.93;13.40;;;18.20;1.00;;;;;;5079821;28;20063;-75
2021/06/26 04:44:39;;;;;;;13.57;12.27;;;18.60;1.00;;;;;;5071145;28;20028;-76
2021/06/26 04:47:06;;;;;;;13.40;12.02;;;18.90;99.90;;;;;;5064084;28;20504;-75
2021/06/26 04:49:32;;;;;;;14.05;12.75;;;19.10;99.90;;;;;;5084303;28;20029;-75
2021/06/26 04:51:57;;;;;;;13.35;12.25;;;19.30;99.90;;;;;;5063090;28;20028;-75
2021/06/26 04:54:23;;;;;;;12.95;11.52;;;19.50;99.90;;;;;;5087792;28;20448;-75
2021/06/26 04:56:49;;;;;;;13.45;11.00;;;19.40;99.90;;;;;;5063881;28;20100;-75
2021/06/26 04:59:14;;;;;;;14.32;12.05;;;19.80;99.90;;;;;;5071541;28;20527;-75
2021/06/26 05:01:40;;;;;;;12.00;10.93;;;20.30;99.90;;;;;;5068780;28;20020;-74
2021/06/26 05:04:05;;;;;;;11.25;10.25;;;21.20;99.90;;;;;;5071430;28;20016;-75
2021/06/26 05:06:31;;;;;;;12.70;10.77;;;22.10;1.00;;;;;;5064810;28;20039;-75
2021/06/26 05:08:57;;;;;;;11.38;10.15;;;22.30;1.00;;;;;;5063439;28;20020;-75
2021/06/26 05:11:23;;;;;;;10.90;10.00;;;22.90;99.90;;;;;;5066294;28;20017;-73
2021/06/26 05:13:49;;;;;;;9.98;9.05;;;23.30;1.00;;;;;;5077407;28;20041;-74
2021/06/26 05:16:14;;;;;;;9.85;9.02;;;23.30;99.90;;;;;;5088527;28;20024;-75
2021/06/26 05:18:40;;;;;;;9.75;8.85;;;22.90;99.90;;;;;;5085762;28;20201;-75
2021/06/26 05:21:06;;;;;;;10.55;9.65;;;22.60;99.90;;;;;;5065330;28;20017;-74
2021/06/26 05:23:32;;;;;;;10.85;8.60;;;23.60;99.90;;;;;;5070255;28;20539;-74
2021/06/26 05:25:58;;;;;;;10.48;9.57;;;24.00;98.40;;;;;;5068912;28;20028;-74
2021/06/26 05:28:23;;;;;;;9.95;9.05;;;24.30;99.90;;;;;;5062783;28;20066;-75
2021/06/26 05:30:49;;;;;;;10.65;9.60;;;24.70;1.00;;;;;;5078848;28;20455;-74
2021/06/26 05:33:14;;;;;;;11.88;10.63;;;24.50;99.90;;;;;;5071464;28;20036;-74
2021/06/26 05:35:40;;;;;;;10.43;9.32;;;24.20;99.90;;;;;;5063426;28;20021;-75
2021/06/26 05:38:06;;;;;;;13.27;10.20;;;23.80;99.90;;;;;;5071498;28;20455;-75
2021/06/26 05:40:31;;;;;;;10.18;9.25;;;23.40;1.00;;;;;;5064638;28;20091;-74
2021/06/26 05:42:57;;;;;;;10.43;9.10;;;22.80;99.90;;;;;;5060729;28;20434;-73
2021/06/26 05:45:23;;;;;;;11.77;10.70;;;21.90;1.00;;;;;;5071488;28;20050;-75
2021/06/26 05:47:48;;;;;;;11.60;10.50;;;21.60;99.90;;;;;;5063862;28;20031;-74
2021/06/26 05:50:14;;;;;;;13.02;11.68;;;21.10;1.00;;;;;;5086591;28;20059;-74
2021/06/26 05:52:47;;;;;;;12.40;11.20;;;21.40;99.90;;;;;;5087059;28;20016;-73
2021/06/26 05:55:13;;;;;;;11.13;10.13;;;21.30;1.00;;;;;;5080112;28;20107;-75
2021/06/26 05:57:39;;;;;;;14.68;11.13;;;21.50;1.00;;;;;;5064942;28;20017;-74
2021/06/26 06:00:05;;;;;;;11.70;10.70;;;22.70;57.60;;;;;;5067770;28;20025;-75
2021/06/26 06:02:31;;;;;;;12.27;10.98;;;23.00;99.90;;;;;;5066689;28;20033;-74
2021/06/26 06:04:56;;;;;;;11.63;10.50;;;23.70;96.70;;;;;;5067717;28;20028;-74
2021/06/26 06:07:22;;;;;;;11.25;10.20;;;23.70;1.00;;;;;;5086659;28;20025;-72
2021/06/26 06:09:47;;;;;;;11.25;10.10;;;23.40;99.90;;;;;;5076204;28;20036;-77
2021/06/26 06:12:13;;;;;;;12.65;11.45;;;24.00;99.90;;;;;;5066761;28;20043;-76
2021/06/26 06:14:38;;;;;;;11.65;10.65;;;24.10;29.00;;;;;;5070120;28;20393;-74
2021/06/26 06:17:04;;;;;;;12.82;11.63;;;24.20;1.00;;;;;;5063123;28;20043;-75
2021/06/26 06:19:29;;;;;;;11.90;10.80;;;24.30;99.90;;;;;;5070764;28;20090;-76
2021/06/26 06:21:55;;;;;;;13.05;11.10;;;24.10;99.90;;;;;;5058043;28;20024;-74
2021/06/26 06:24:20;;;;;;;11.00;10.10;;;24.90;44.00;;;;;;5069270;28;20021;-74
2021/06/26 06:26:46;;;;;;;13.27;11.55;;;23.80;93.50;;;;;;5066271;28;20364;-75
2021/06/26 06:29:12;;;;;;;10.95;9.98;;;24.40;10.00;;;;;;5069545;28;20032;-74
2021/06/26 06:31:37;;;;;;;12.25;11.15;;;23.70;99.90;;;;;;5063023;28;20025;-74
2021/06/26 06:34:03;;;;;;;12.88;11.35;;;23.10;1.00;;;;;;5069435;28;20052;-75
2021/06/26 06:36:29;;;;;;;11.48;10.35;;;22.50;99.90;;;;;;5071016;28;20554;-75
2021/06/26 06:38:55;;;;;;;12.38;10.93;;;23.10;91.80;;;;;;5068219;28;20059;-74
2021/06/26 06:41:20;;;;;;;11.93;10.93;;;23.10;40.20;;;;;;5064867;28;20060;-74
2021/06/26 06:43:46;;;;;;;11.75;10.75;;;22.80;99.90;;;;;;5069230;28;20020;-74
2021/06/26 06:46:13;;;;;;;12.02;10.88;;;22.10;1.00;;;;;;5073602;28;20177;-74
2021/06/26 06:48:38;;;;;;;11.40;10.27;;;22.00;1.00;;;;;;5074430;28;20024;-75
2021/06/26 06:51:04;;;;;;;11.70;10.68;;;22.60;99.90;;;;;;5066169;28;20370;-75
2021/06/26 06:53:30;;;;;;;13.10;11.73;;;22.90;99.90;;;;;;5068098;28;20536;-75
2021/06/26 06:55:58;;;;;;;12.57;10.57;;;22.80;99.90;;;;;;5089167;28;20032;-75
2021/06/26 06:58:24;;;;;;;12.13;10.90;;;22.40;99.90;;;;;;5073646;28;20031;-74
2021/06/26 07:00:50;;;;;;;11.48;10.38;;;22.30;99.90;;;;;;5065068;28;20096;-74
2021/06/26 07:03:15;;;;;;;12.20;10.75;;;22.60;77.60;;;;;;5073648;28;20458;-75
2021/06/26 07:05:41;;;;;;;11.23;10.18;;;23.20;99.90;;;;;;5081110;28;20119;-75
2021/06/26 07:08:07;;;;;;;11.13;10.23;;;23.40;99.90;;;;;;5083496;28;20608;-75
2021/06/26 07:10:32;;;;;;;12.88;10.90;;;23.40;99.90;;;;;;5065693;28;20082;-74
2021/06/26 07:12:58;;;;;;;12.00;10.73;;;23.30;99.90;;;;;;5067767;28;21071;-74
2021/06/26 07:15:23;;;;;;;12.10;10.95;;;23.00;99.90;;;;;;5067645;28;20029;-74
2021/06/26 07:17:49;;;;;;;12.07;10.88;;;22.90;99.90;;;;;;5087209;28;20100;-75
2021/06/26 07:20:15;;;;;;;13.07;11.82;;;22.90;1.00;;;;;;5089171;28;20443;-75
2021/06/26 07:22:41;;;;;;;10.70;9.70;;;23.00;99.90;;;;;;5067389;28;20058;-75
2021/06/26 07:25:07;;;;;;;10.88;9.88;;;23.00;99.90;;;;;;5070100;28;20112;-73
2021/06/26 07:27:32;;;;;;;13.00;10.60;;;22.90;99.90;;;;;;5073411;28;20103;-76
2021/06/26 07:29:58;;;;;;;12.70;11.50;;;22.70;99.90;;;;;;5071386;28;21127;-75
2021/06/26 07:32:23;;;;;;;11.50;10.45;;;22.50;99.90;;;;;;5081165;28;20157;-75
2021/06/26 07:34:49;;;;;;;13.25;11.85;;;22.30;1.00;;;;;;5071726;28;20048;-74
2021/06/26 07:37:15;;;;;;;12.73;11.43;;;22.20;1.00;;;;;;5058389;28;20021;-73
2021/06/26 07:39:40;;;;;;;11.30;10.32;;;22.50;1.00;;;;;;5070731;28;20029;-75
2021/06/26 07:42:06;;;;;;;12.18;11.13;;;22.90;1.00;;;;;;5069764;28;20025;-76
2021/06/26 07:44:32;;;;;;;11.35;10.35;;;23.10;1.00;;;;;;5070760;28;20025;-75
2021/06/26 07:46:58;;;;;;;12.15;10.98;;;23.10;99.90;;;;;;5080902;28;20512;-74
2021/06/26 07:49:23;;;;;;;10.02;9.13;;;23.30;99.90;;;;;;5065506;28;20119;-75
2021/06/26 07:51:49;;;;;;;11.02;9.77;;;23.40;99.90;;;;;;5070146;28;20021;-73
2021/06/26 07:54:17;;;;;;;12.52;11.43;;;23.30;99.90;;;;;;5072043;28;20565;-74
2021/06/26 07:56:44;;;;;;;10.23;9.38;;;23.70;99.90;;;;;;5064450;28;20391;-74
2021/06/26 07:59:10;;;;;;;10.63;9.45;;;23.40;99.90;;;;;;5064898;28;20517;-75
2021/06/26 08:01:35;;;;;;;10.80;9.55;;;23.80;1.00;;;;;;5081385;28;20060;-75
2021/06/26 08:04:02;;;;;;;10.85;9.82;;;23.60;1.00;;;;;;5072288;28;20055;-74
2021/06/26 08:06:27;;;;;;;9.57;8.77;;;23.20;27.00;;;;;;5069325;28;20024;-74
2021/06/26 08:08:53;;;;;;;11.27;10.18;;;23.00;96.50;;;;;;5079913;28;20048;-75
2021/06/26 08:11:20;;;;;;;12.82;11.73;;;23.70;99.90;;;;;;5087880;28;20119;-75
2021/06/26 08:13:46;;;;;;;12.30;11.20;;;23.80;46.60;;;;;;5072575;28;20146;-75
2021/06/26 08:16:11;;;;;;;12.85;11.65;;;23.10;99.90;;;;;;5068142;28;20048;-75
2021/06/26 08:18:37;;;;;;;11.38;10.27;;;23.30;99.90;;;;;;5065826;28;20540;-74
2021/06/26 08:21:04;;;;;;;12.10;10.35;;;23.60;11.90;;;;;;5072395;28;20031;-76
2021/06/26 08:23:30;;;;;;;11.52;10.60;;;23.30;50.80;;;;;;5072577;28;20098;-74
2021/06/26 08:25:56;;;;;;;12.23;11.13;;;23.40;36.10;;;;;;5069997;28;20032;-75
2021/06/26 08:28:21;;;;;;;10.45;9.63;;;23.50;1.00;;;;;;5064657;28;20036;-75
2021/06/26 08:30:47;;;;;;;10.55;9.55;;;23.50;1.00;;;;;;5058513;28;20029;-75
2021/06/26 08:33:12;;;;;;;10.93;9.88;;;23.40;1.00;;;;;;5070967;28;20029;-75
2021/06/26 08:35:38;;;;;;;10.93;10.02;;;23.60;99.90;;;;;;5061953;28;20455;-75
2021/06/26 08:38:03;;;;;;;10.55;9.40;;;23.40;99.90;;;;;;5080130;28;20024;-75
2021/06/26 08:40:29;;;;;;;10.80;9.90;;;23.10;1.00;;;;;;5073373;28;20074;-74
2021/06/26 08:42:56;;;;;;;9.63;8.65;;;23.20;99.90;;;;;;5072021;28;20032;-74
2021/06/26 08:45:22;;;;;;;8.95;8.07;;;23.30;99.90;;;;;;5082330;28;20025;-73
2021/06/26 08:47:50;;;;;;;8.40;7.70;;;24.00;74.80;;;;;;5078340;28;20096;-75
2021/06/26 08:50:17;;;;;;;9.43;8.52;;;24.40;1.00;;;;;;5064328;28;20028;-75
2021/06/26 08:52:43;;;;;;;9.13;8.25;;;24.60;1.00;;;;;;5073553;28;20056;-74
2021/06/26 08:55:09;;;;;;;8.82;8.05;;;24.40;99.90;;;;;;5071010;28;20019;-73
2021/06/26 08:57:40;;;;;;;8.68;7.88;;;24.30;99.90;;;;;;5067831;28;20105;-74
2021/06/26 09:00:10;;;;;;;8.32;7.45;;;24.20;99.90;;;;;;5068249;28;20039;-74
2021/06/26 09:02:36;;;;;;;7.93;7.25;;;23.80;99.90;;;;;;5080455;28;20033;-75
2021/06/26 09:05:04;;;;;;;9.25;8.45;;;24.00;99.90;;;;;;5082753;28;20035;-75
2021/06/26 09:07:40;;;;;;;9.00;8.10;;;24.20;99.90;;;;;;5073107;28;20498;-74
2021/06/26 09:10:22;;;;;;;10.30;7.80;;;24.20;99.90;;;;;;5072762;28;20026;-74
2021/06/26 09:12:51;;;;;;;8.30;7.60;;;24.30;99.90;;;;;;5063528;28;20141;-75
2021/06/26 09:15:28;;;;;;;7.47;6.82;;;23.90;99.90;;;;;;5071097;28;20024;-74
2021/06/26 09:17:55;;;;;;;7.68;6.97;;;23.90;99.90;;;;;;5063600;28;20048;-75
2021/06/26 09:20:31;;;;;;;8.13;7.32;;;24.20;99.90;;;;;;5071473;28;20025;-74
2021/06/26 09:22:58;;;;;;;7.32;6.72;;;24.60;1.00;;;;;;5071503;28;20028;-75
2021/06/26 09:25:34;;;;;;;8.55;7.85;;;24.80;1.00;;;;;;5071860;28;20097;-75
2021/06/26 09:28:01;;;;;;;7.18;6.47;;;24.50;1.00;;;;;;5087438;28;20123;-73
2021/06/26 09:30:45;;;;;;;7.75;7.00;;;24.20;1.00;;;;;;5089410;28;20036;-73
2021/06/26 09:33:20;;;;;;;8.32;7.53;;;23.70;1.00;;;;;;5086916;28;20082;-75
2021/06/26 09:36:00;;;;;;;7.35;6.65;;;23.90;1.00;;;;;;5076412;28;20049;-75
2021/06/26 09:38:26;;;;;;;8.25;7.45;;;23.90;1.00;;;;;;5066955;28;20120;-75
2021/06/26 09:40:52;;;;;;;8.23;7.53;;;23.90;1.00;;;;;;5094165;28;20033;-74
2021/06/26 09:43:28;;;;;;;8.38;7.53;;;23.30;1.00;;;;;;5081942;28;20045;-73
2021/06/26 09:46:08;;;;;;;7.38;6.78;;;23.50;1.00;;;;;;5074639;28;20386;-75
2021/06/26 09:48:33;;;;;;;8.03;7.43;;;23.90;1.00;;;;;;5068681;28;20029;-76
2021/06/26 09:50:59;;;;;;;7.15;6.45;;;24.10;1.00;;;;;;5070788;28;20047;-75
2021/06/26 09:53:25;;;;;;;8.70;7.78;;;24.40;1.00;;;;;;5070530;28;20036;-75
2021/06/26 09:55:53;;;;;;;7.72;6.22;;;24.50;99.90;;;;;;5069655;28;20097;-75
2021/06/26 09:58:19;;;;;;;7.53;6.88;;;24.70;1.00;;;;;;5057305;28;20053;-74
2021/06/26 10:00:46;;;;;;;7.00;6.40;;;25.60;99.90;;;;;;5055039;28;20056;-74
2021/06/26 10:03:16;;;;;;;7.50;6.80;;;25.70;99.90;;;;;;5071377;28;20029;-75
2021/06/26 10:05:44;;;;;;;8.45;7.68;;;25.70;99.90;;;;;;5071740;28;20020;-75
2021/06/26 10:08:10;;;;;;;7.63;6.97;;;25.30;99.90;;;;;;5071526;28;20024;-74
2021/06/26 10:10:36;;;;;;;7.85;7.22;;;25.00;99.90;;;;;;5071371;28;20029;-77
2021/06/26 10:13:02;;;;;;;7.32;6.72;;;25.00;99.90;;;;;;5071446;28;20384;-75
2021/06/26 10:15:33;;;;;;;7.78;7.00;;;25.00;99.90;;;;;;5071340;28;20025;-74
2021/06/26 10:17:59;;;;;;;7.25;6.75;;;25.10;99.90;;;;;;5068276;28;20037;-74
2021/06/26 10:20:26;;;;;;;7.57;6.90;;;24.60;99.90;;;;;;5070998;28;20037;-74
2021/06/26 10:22:57;;;;;;;7.70;6.90;;;24.50;99.90;;;;;;5067092;28;20039;-74
2021/06/26 10:25:31;;;;;;;7.97;6.85;;;24.20;99.90;;;;;;5069077;28;20028;-76
2021/06/26 10:28:08;;;;;;;7.20;6.50;;;24.20;99.90;;;;;;5078318;28;20434;-76
2021/06/26 10:30:34;;;;;;;6.05;5.65;;;24.30;99.90;;;;;;5069794;28;20017;-77
2021/06/26 10:33:02;;;;;;;7.10;5.15;;;25.00;99.90;;;;;;5073504;28;20530;-77
2021/06/26 10:35:32;;;;;;;5.43;5.03;;;25.30;99.90;;;;;;5073285;28;20493;-78
2021/06/26 10:38:11;;;;;;;5.55;5.15;;;25.90;74.20;;;;;;5064995;28;20025;-77
2021/06/26 10:40:47;;;;;;;6.10;5.60;;;26.30;21.40;;;;;;5057852;28;20461;-79
2021/06/26 10:43:17;;;;;;;5.75;5.25;;;26.10;1.00;;;;;;5076370;28;20040;-77
2021/06/26 10:45:44;;;;;;;6.07;5.22;;;26.10;1.00;;;;;;5065044;28;20029;-77
2021/06/26 10:48:24;;;;;;;5.40;4.90;;;26.30;1.00;;;;;;5066645;28;20509;-78
2021/06/26 10:50:54;;;;;;;4.50;4.17;;;26.40;1.00;;;;;;5074219;28;20075;-78
2021/06/26 10:53:37;;;;;;;5.22;4.82;;;26.00;99.90;;;;;;5068934;28;20021;-77
2021/06/26 10:56:08;;;;;;;5.03;4.63;;;25.40;1.00;;;;;;5089711;28;20043;-78
2021/06/26 10:58:37;;;;;;;5.90;5.40;;;26.20;99.90;;;;;;5073135;28;20099;-77
2021/06/26 11:01:23;;;;;;;6.10;5.43;;;26.20;99.90;;;;;;5074327;28;20035;-77
2021/06/26 11:04:14;;;;;;;6.05;5.55;;;25.70;99.90;;;;;;5066594;28;20389;-78
2021/06/26 11:06:40;;;;;;;6.00;5.50;;;25.40;99.90;;;;;;5075221;28;20185;-79
2021/06/26 11:09:10;;;;;;;6.25;5.70;;;25.40;1.00;;;;;;5082293;28;20438;-78
2021/06/26 11:11:42;;;;;;;;;;;25.80;99.90;;;;;;5074806;28;20024;-78
2021/06/26 11:14:09;;;;;;;6.15;5.65;;;25.90;99.90;;;;;;5062531;28;19999;-79
2021/06/26 11:16:36;;;;;;;5.30;4.90;;;26.60;99.90;;;;;;5070702;28;20073;-80
2021/06/26 11:19:01;;;;;;;5.05;4.65;;;26.50;99.90;;;;;;5062277;28;20017;-78
2021/06/26 11:21:27;;;;;;;5.53;5.03;;;26.80;99.90;;;;;;5064776;28;20364;-79
2021/06/26 11:23:53;;;;;;;5.40;5.00;;;27.20;99.90;;;;;;5057667;28;20079;-78
2021/06/26 11:26:19;;;;;;;5.72;5.22;;;27.30;99.90;;;;;;5090745;28;20036;-78
2021/06/26 11:28:44;;;;;;;7.13;5.95;;;26.80;99.90;;;;;;5066862;28;20028;-79
2021/06/26 11:31:11;;;;;;;5.85;5.25;;;26.60;99.90;;;;;;5073681;28;20502;-78
2021/06/26 11:33:40;;;;;;;5.38;4.88;;;26.10;99.90;;;;;;5073413;28;20029;-79
2021/06/26 11:36:10;;;;;;;5.05;4.65;;;26.30;99.90;;;;;;5072111;28;20490;-79
2021/06/26 11:38:36;;;;;;;6.13;4.30;;;26.30;99.90;;;;;;5066699;28;20112;-78
2021/06/26 11:41:10;;;;;;;5.75;5.25;;;26.30;99.90;;;;;;5070542;28;20469;-79
2021/06/26 11:43:37;;;;;;;5.32;4.90;;;26.60;99.90;;;;;;5068907;28;20032;-78
2021/06/26 11:46:05;;;;;;;5.18;4.82;;;26.50;99.90;;;;;;5073671;28;20374;-79
2021/06/26 11:48:31;;;;;;;4.88;4.57;;;26.60;99.90;;;;;;5074554;28;20084;-78
2021/06/26 11:51:05;;;;;;;5.70;5.25;;;26.90;99.90;;;;;;5072707;28;20025;-79
2021/06/26 11:53:36;;;;;;;5.35;4.85;;;26.90;99.90;;;;;;5073001;28;20107;-79
2021/06/26 11:56:02;;;;;;;4.00;3.70;;;26.90;99.90;;;;;;5063522;28;20041;-80
2021/06/26 11:58:45;;;;;;;4.22;3.83;;;26.90;99.90;;;;;;5071202;28;20039;-78
2021/06/26 12:01:14;;;;;;;4.10;3.80;;;27.00;99.90;;;;;;5061817;28;20025;-80
2021/06/26 12:03:41;;;;;;;4.18;3.88;;;27.40;99.90;;;;;;5059512;28;20021;-80
2021/06/26 12:06:12;;;;;;;5.60;4.28;;;26.90;99.90;;;;;;5067211;28;20020;-79
2021/06/26 12:08:52;;;;;;;4.60;4.20;;;27.30;99.00;;;;;;5075138;28;20400;-79
2021/06/26 12:11:43;;;;;;;4.55;4.20;;;27.60;93.30;;;;;;5063898;28;20068;-79
2021/06/26 12:14:10;;;;;;;6.22;5.63;;;27.40;89.40;;;;;;5062282;28;20583;-79
2021/06/26 12:16:38;;;;;;;7.15;6.50;;;27.60;90.00;;;;;;5070656;28;20063;-79
2021/06/26 12:19:07;;;;;;;5.03;4.57;;;27.00;83.20;;;;;;5089846;28;20024;-80
2021/06/26 12:21:41;;;;;;;7.28;6.68;;;27.20;73.40;;;;;;5073251;28;20566;-79
2021/06/26 12:24:08;;;;;;;5.70;5.20;;;27.10;65.10;;;;;;5081693;28;20032;-79
2021/06/26 12:26:33;;;;;;;6.35;4.20;;;27.20;72.30;;;;;;5071904;28;20033;-78
2021/06/26 12:28:59;;;;;;;4.53;3.58;;;27.50;26.00;;;;;;5071060;28;20033;-78
2021/06/26 12:31:25;;;;;;;3.83;3.55;;;27.60;13.80;;;;;;5066315;28;20024;-81
2021/06/26 12:34:04;;;;;;;3.63;3.40;;;28.00;7.20;;;;;;5068272;28;20373;-80
2021/06/26 12:36:30;;;;;;;3.75;3.45;;;28.00;1.00;;;;;;5083414;28;20032;-79
2021/06/26 12:38:55;;;;;;;4.25;3.65;;;28.20;1.00;;;;;;5064709;28;20032;-79